createdAt,value
2023-08-14T00:01:46.839Z,4.10
2023-08-14T00:05:13.951Z,2.78
2023-08-14T00:08:43.378Z,2.85
2023-08-14T00:12:06.536Z,2.55
2023-08-14T00:15:31.431Z,2.58
2023-08-14T00:18:58.589Z,3.03
2023-08-14T00:22:26.190Z,2.85
2023-08-14T00:25:53.270Z,2.72
2023-08-14T00:29:16.361Z,3.10
2023-08-14T00:32:41.352Z,2.28
2023-08-14T00:36:10.829Z,2.22
2023-08-14T00:39:37.912Z,2.72
2023-08-14T00:43:01.407Z,2.47
2023-08-14T00:46:24.700Z,2.50
2023-08-14T00:49:47.681Z,2.42
2023-08-14T00:53:15.260Z,2.33
2023-08-14T00:56:42.819Z,2.10
2023-08-14T01:00:06.766Z,3.03
2023-08-14T01:03:43.662Z,2.50
2023-08-14T01:07:08.974Z,2.85
2023-08-14T01:10:40.206Z,2.25
2023-08-14T01:14:03.745Z,3.63
2023-08-14T01:17:33.297Z,2.58
2023-08-14T01:21:00.462Z,4.72
2023-08-14T01:24:25.782Z,3.75
2023-08-14T01:27:53.145Z,4.03
2023-08-14T01:31:18.656Z,2.97
2023-08-14T01:34:45.617Z,2.30
2023-08-14T01:38:10.894Z,2.20
2023-08-14T01:41:49.662Z,2.67
2023-08-14T01:45:13.014Z,2.83
2023-08-14T01:48:37.971Z,3.05
2023-08-14T01:52:01.650Z,3.63
2023-08-14T01:55:35.493Z,5.50
2023-08-14T01:58:58.742Z,2.92
2023-08-14T02:02:26.075Z,3.10
2023-08-14T02:06:02.645Z,4.10
2023-08-14T02:09:30.112Z,4.82
2023-08-14T02:13:03.643Z,3.58
2023-08-14T02:16:27.201Z,2.50
2023-08-14T02:19:52.493Z,2.30
2023-08-14T02:23:21.622Z,2.03
2023-08-14T02:26:48.736Z,2.85
2023-08-14T02:30:14.378Z,2.92
2023-08-14T02:33:37.591Z,2.85
2023-08-14T02:37:05.302Z,3.10
2023-08-14T02:40:30.724Z,3.25
2023-08-14T02:44:09.545Z,3.47
2023-08-14T02:47:32.634Z,2.92
2023-08-14T02:50:56.399Z,3.28
2023-08-14T02:54:19.794Z,4.32
2023-08-14T02:57:52.712Z,2.33
2023-08-14T03:01:24.414Z,3.05
2023-08-14T03:04:47.482Z,2.50
2023-08-14T03:08:16.690Z,8.25
2023-08-14T03:11:42.195Z,2.05
2023-08-14T03:15:22.496Z,3.33
2023-08-14T03:18:45.422Z,3.15
2023-08-14T03:22:08.614Z,3.85
2023-08-14T03:25:33.468Z,4.28
2023-08-14T03:29:08.429Z,3.10
2023-08-14T03:32:37.356Z,4.07
2023-08-14T03:36:00.342Z,2.60
2023-08-14T03:39:23.539Z,2.65
2023-08-14T03:42:54.849Z,3.25
2023-08-14T03:46:27.787Z,4.47
2023-08-14T03:49:51.076Z,7.15
2023-08-14T03:53:14.451Z,3.45
2023-08-14T03:56:39.383Z,3.85
2023-08-14T04:00:06.576Z,3.33
2023-08-14T04:03:30.593Z,2.67
2023-08-14T04:06:54.184Z,3.45
2023-08-14T04:10:19.344Z,5.63
2023-08-14T04:13:42.450Z,3.47
2023-08-14T04:17:23.569Z,5.63
2023-08-14T04:20:46.699Z,3.53
2023-08-14T04:24:12.284Z,3.10
2023-08-14T04:27:42.139Z,3.80
2023-08-14T04:31:05.561Z,5.22
2023-08-14T04:34:30.492Z,2.53
2023-08-14T04:37:54.480Z,3.80
2023-08-14T04:41:21.706Z,4.55
2023-08-14T04:44:45.021Z,2.40
2023-08-14T04:48:21.438Z,3.20
2023-08-14T04:51:44.732Z,3.20
2023-08-14T04:55:11.755Z,5.03
2023-08-14T04:58:45.569Z,5.95
2023-08-14T05:02:09.311Z,5.88
2023-08-14T05:05:41.368Z,4.85
2023-08-14T05:09:20.060Z,3.83
2023-08-14T05:12:50.927Z,2.95
2023-08-14T05:16:16.426Z,4.18
2023-08-14T05:19:41.933Z,6.57
2023-08-14T05:23:05.314Z,3.90
2023-08-14T05:26:30.683Z,2.75
2023-08-14T05:30:07.979Z,5.47
2023-08-14T05:33:35.299Z,2.90
2023-08-14T05:37:13.109Z,4.30
2023-08-14T05:40:36.276Z,3.10
2023-08-14T05:44:05.596Z,3.58
2023-08-14T05:47:33.331Z,4.30
2023-08-14T05:51:02.908Z,4.82
2023-08-14T05:54:26.393Z,3.33
2023-08-14T05:57:53.752Z,3.97
2023-08-14T06:01:23.832Z,4.88
2023-08-14T06:04:59.243Z,2.80
2023-08-14T06:08:28.326Z,3.13
2023-08-14T06:11:51.560Z,3.28
2023-08-14T06:15:20.533Z,6.57
2023-08-14T06:18:43.610Z,3.13
2023-08-14T06:22:12.724Z,2.95
2023-08-14T06:25:41.977Z,4.22
2023-08-14T06:29:12.045Z,3.50
2023-08-14T06:32:43.814Z,3.08
2023-08-14T06:36:10.071Z,4.05
2023-08-14T06:39:48.662Z,3.65
2023-08-14T06:43:11.993Z,2.88
2023-08-14T06:46:36.829Z,3.10
2023-08-14T06:50:19.407Z,3.03
2023-08-14T06:53:48.349Z,2.63
2023-08-14T06:57:15.928Z,4.60
2023-08-14T07:00:41.598Z,2.85
2023-08-14T07:04:18.685Z,2.92
2023-08-14T07:07:42.289Z,4.45
2023-08-14T07:11:09.691Z,4.28
2023-08-14T07:14:33.090Z,3.08
2023-08-14T07:18:02.733Z,4.82
2023-08-14T07:21:26.241Z,4.78
2023-08-14T07:24:56.967Z,5.57
2023-08-14T07:28:28.182Z,3.45
2023-08-14T07:31:53.647Z,4.53
2023-08-14T07:35:20.698Z,4.90
2023-08-14T07:38:47.937Z,5.68
2023-08-14T07:42:26.747Z,4.20
2023-08-14T07:45:50.500Z,3.42
2023-08-14T07:49:16.067Z,2.60
2023-08-14T07:52:41.788Z,2.85
2023-08-14T07:56:17.746Z,6.40
2023-08-14T07:59:40.964Z,2.72
2023-08-14T08:03:08.040Z,2.97
2023-08-14T08:06:44.986Z,2.40
2023-08-14T08:10:10.947Z,2.60
2023-08-14T08:13:49.392Z,4.60
2023-08-14T08:17:12.381Z,3.10
2023-08-14T08:20:41.760Z,2.85
2023-08-14T08:24:08.854Z,2.00
2023-08-14T08:27:38.526Z,5.85
2023-08-14T08:31:01.677Z,4.70
2023-08-14T08:34:27.518Z,3.20
2023-08-14T08:38:03.761Z,5.43
2023-08-14T08:41:29.524Z,2.80
2023-08-14T08:45:00.860Z,2.58
2023-08-14T08:48:24.564Z,6.38
2023-08-14T08:51:53.913Z,2.72
2023-08-14T08:55:17.676Z,3.08
2023-08-14T08:58:52.048Z,3.33
2023-08-14T09:02:21.663Z,3.00
2023-08-14T09:05:47.305Z,2.00
2023-08-14T09:09:23.949Z,4.95
2023-08-14T09:12:49.307Z,2.78
2023-08-14T09:16:29.672Z,4.30
2023-08-14T09:19:52.748Z,4.13
2023-08-14T09:23:17.956Z,3.88
2023-08-14T09:26:41.431Z,2.70
2023-08-14T09:30:10.796Z,2.88
2023-08-14T09:33:34.027Z,2.92
2023-08-14T09:36:59.265Z,2.40
2023-08-14T09:40:35.894Z,5.97
2023-08-14T09:44:05.395Z,6.40
2023-08-14T09:47:34.786Z,4.45
2023-08-14T09:50:58.251Z,3.20
2023-08-14T09:54:27.455Z,2.30
2023-08-14T09:57:52.382Z,6.75
2023-08-14T10:01:28.847Z,3.33
2023-08-14T10:04:54.301Z,3.17
2023-08-14T10:08:23.223Z,2.72
2023-08-14T10:11:59.803Z,3.30
2023-08-14T10:15:24.825Z,2.53
2023-08-14T10:18:47.921Z,3.08
2023-08-14T10:22:11.011Z,3.67
2023-08-14T10:25:40.561Z,3.67
2023-08-14T10:29:06.182Z,4.93
2023-08-14T10:32:34.338Z,2.60
2023-08-14T10:35:59.632Z,2.50
2023-08-14T10:43:00.847Z,2.83
2023-08-14T10:46:29.771Z,2.92
2023-08-14T10:49:57.382Z,2.17
2023-08-14T10:53:20.696Z,2.83
2023-08-14T10:56:44.469Z,3.47
2023-08-14T11:00:10.440Z,2.53
2023-08-14T11:03:40.035Z,2.95
2023-08-14T11:07:11.876Z,2.17
2023-08-14T11:10:35.458Z,3.10
2023-08-14T11:14:01.373Z,5.68
2023-08-14T11:17:27.848Z,3.33
2023-08-14T11:21:01.325Z,7.32
2023-08-14T11:24:32.749Z,2.90
2023-08-14T11:27:58.776Z,3.00
2023-08-14T11:31:31.199Z,2.25
2023-08-14T11:35:03.883Z,3.00
2023-08-14T11:38:29.956Z,2.75
2023-08-14T11:41:53.384Z,4.10
2023-08-14T11:45:18.712Z,2.30
2023-08-14T11:48:42.858Z,6.20
2023-08-14T11:52:10.662Z,4.07
2023-08-14T11:55:36.253Z,2.28
2023-08-14T11:59:07.556Z,2.80
2023-08-14T12:02:35.494Z,2.10
2023-08-14T12:05:59.057Z,2.60
2023-08-14T12:09:24.570Z,2.92
2023-08-14T12:12:55.836Z,3.70
2023-08-14T12:16:24.801Z,1.90
2023-08-14T12:19:56.933Z,1.65
2023-08-14T12:23:24.242Z,4.22
2023-08-14T12:26:48.041Z,1.90
2023-08-14T12:30:15.140Z,2.35
2023-08-14T12:33:42.391Z,5.00
2023-08-14T12:37:10.483Z,2.05
2023-08-14T12:40:37.501Z,4.20
2023-08-14T12:44:00.867Z,2.50
2023-08-14T12:47:26.357Z,2.15
2023-08-14T12:50:52.203Z,3.17
2023-08-14T12:54:21.949Z,1.95
2023-08-14T12:57:48.624Z,3.25
2023-08-14T13:01:12.733Z,1.42
2023-08-14T13:08:12.506Z,1.77
2023-08-14T13:11:41.638Z,1.40
2023-08-14T13:15:06.539Z,3.03
2023-08-14T13:18:30.028Z,3.05
2023-08-14T13:21:55.131Z,1.58
2023-08-14T13:25:25.253Z,2.45
2023-08-14T13:28:52.860Z,3.60
2023-08-14T13:35:39.410Z,3.33
2023-08-14T13:39:02.992Z,1.60
2023-08-14T13:42:28.030Z,2.25
2023-08-14T13:45:51.134Z,3.33
2023-08-14T13:49:16.492Z,3.45
2023-08-14T13:52:52.994Z,3.80
2023-08-14T13:56:17.941Z,1.45
2023-08-14T13:59:47.182Z,2.80
2023-08-14T14:03:26.585Z,2.53
2023-08-14T14:06:58.007Z,3.10
2023-08-14T14:10:27.230Z,1.58
2023-08-14T14:14:08.770Z,2.38
2023-08-14T14:17:32.487Z,2.05
2023-08-14T14:20:55.677Z,2.35
2023-08-14T14:24:22.637Z,2.38
2023-08-14T14:27:48.443Z,2.78
2023-08-14T14:31:23.802Z,1.83
2023-08-14T14:35:03.446Z,5.20
2023-08-14T14:38:30.361Z,1.88
2023-08-14T14:41:53.993Z,1.40
2023-08-14T14:45:34.147Z,1.70
2023-08-14T14:49:06.609Z,2.13
2023-08-14T14:52:31.925Z,3.53
2023-08-14T14:56:00.280Z,2.03
2023-08-14T14:59:23.910Z,2.95
2023-08-14T15:02:51.458Z,6.40
2023-08-14T15:06:16.939Z,1.23
2023-08-14T15:09:42.314Z,2.00
2023-08-14T15:13:07.362Z,3.60
2023-08-14T15:16:35.915Z,1.75
2023-08-14T15:19:59.219Z,2.10
2023-08-14T15:23:26.308Z,3.22
2023-08-14T15:27:03.103Z,1.33
2023-08-14T15:30:28.358Z,2.90
2023-08-14T15:34:02.999Z,5.13
2023-08-14T15:37:26.748Z,3.22
2023-08-14T15:40:51.828Z,1.70
2023-08-14T15:44:21.346Z,2.17
2023-08-14T15:47:58.044Z,2.92
2023-08-14T15:51:23.125Z,2.40
2023-08-14T15:54:53.756Z,2.05
2023-08-14T15:58:26.015Z,1.85
2023-08-14T16:01:50.965Z,2.30
2023-08-14T16:05:20.664Z,2.55
2023-08-14T16:08:43.718Z,4.15
2023-08-14T16:12:09.396Z,2.78
2023-08-14T16:15:32.407Z,4.22
2023-08-14T16:19:02.433Z,2.25
2023-08-14T16:22:25.623Z,1.83
2023-08-14T16:25:49.153Z,3.33
2023-08-14T16:29:19.100Z,2.08
2023-08-14T16:32:47.456Z,5.15
2023-08-14T16:36:21.941Z,2.65
2023-08-14T16:43:00.326Z,1.88
2023-08-14T16:46:23.379Z,1.80
2023-08-14T16:49:52.644Z,2.95
2023-08-14T16:53:16.148Z,2.15
2023-08-14T16:56:40.058Z,3.08
2023-08-14T17:00:05.500Z,5.03
2023-08-14T17:03:30.628Z,4.78
2023-08-14T17:07:00.055Z,4.22
2023-08-14T17:10:23.372Z,2.63
2023-08-14T17:13:47.198Z,2.55
2023-08-14T17:17:15.983Z,5.10
2023-08-14T17:20:41.371Z,2.95
2023-08-14T17:24:21.895Z,4.38
2023-08-14T17:27:45.976Z,3.65
2023-08-14T17:31:11.071Z,3.53
2023-08-14T17:34:36.714Z,3.22
2023-08-14T17:38:04.118Z,4.78
2023-08-14T17:41:27.592Z,3.40
2023-08-14T17:44:52.513Z,5.80
2023-08-14T17:48:24.210Z,3.50
2023-08-14T17:51:47.389Z,7.88
2023-08-14T17:55:22.519Z,4.80
2023-08-14T17:58:45.887Z,3.15
2023-08-14T18:02:13.283Z,5.75
2023-08-14T18:05:40.806Z,4.28
2023-08-14T18:09:10.266Z,4.68
2023-08-14T18:12:33.579Z,3.92
2023-08-14T18:15:59.185Z,4.45
2023-08-14T18:19:30.040Z,8.85
2023-08-14T18:22:55.387Z,8.30
2023-08-14T18:26:25.318Z,6.45
2023-08-14T18:29:49.189Z,5.43
2023-08-14T18:33:20.742Z,7.53
2023-08-14T18:36:52.809Z,11.25
2023-08-14T18:44:48.774Z,6.90
2023-08-14T18:48:11.634Z,7.65
2023-08-14T18:51:41.071Z,7.85
2023-08-14T18:55:06.500Z,10.50
2023-08-14T18:58:34.131Z,7.85
2023-08-14T19:02:01.802Z,11.73
2023-08-14T19:05:33.437Z,11.15
2023-08-14T19:08:56.857Z,18.83
2023-08-14T19:12:25.827Z,19.77
2023-08-14T19:15:49.078Z,15.25
2023-08-14T19:19:15.193Z,20.13
2023-08-14T19:22:42.275Z,16.83
2023-08-14T19:26:14.980Z,15.85
2023-08-14T19:29:58.504Z,12.63
2023-08-14T19:33:23.258Z,12.07
2023-08-14T19:36:50.495Z,11.88
2023-08-14T19:40:24.403Z,8.27
2023-08-14T19:43:53.438Z,8.07
2023-08-14T19:47:30.087Z,12.63
2023-08-14T19:50:55.073Z,7.75
2023-08-14T19:54:26.273Z,8.15
2023-08-14T19:57:49.959Z,9.35
2023-08-14T20:01:15.684Z,8.20
2023-08-14T20:04:38.973Z,8.00
2023-08-14T20:08:06.237Z,6.50
2023-08-14T20:11:33.619Z,8.38
2023-08-14T20:15:00.753Z,10.27
2023-08-14T20:18:28.046Z,10.30
2023-08-14T20:21:53.448Z,8.50
2023-08-14T20:25:23.260Z,7.40
2023-08-14T20:28:52.479Z,7.20
2023-08-14T20:32:21.648Z,7.40
2023-08-14T20:35:45.179Z,7.00
2023-08-14T20:39:14.597Z,7.95
2023-08-14T20:42:42.150Z,11.27
2023-08-14T20:46:11.911Z,8.32
2023-08-14T20:49:36.937Z,9.38
2023-08-14T20:52:59.919Z,6.07
2023-08-14T20:56:30.164Z,7.22
2023-08-14T20:59:55.400Z,5.72
2023-08-14T21:03:25.043Z,6.32
2023-08-14T21:06:48.726Z,5.88
2023-08-14T21:10:15.797Z,5.25
2023-08-14T21:13:45.954Z,5.00
2023-08-14T21:17:37.152Z,9.32
2023-08-14T21:21:06.278Z,5.65
2023-08-14T21:24:36.202Z,8.27
2023-08-14T21:27:59.366Z,7.78
2023-08-14T21:31:28.934Z,5.68
2023-08-14T21:34:54.426Z,6.82
2023-08-14T21:38:17.621Z,7.57
2023-08-14T21:41:44.555Z,5.57
2023-08-14T21:45:07.709Z,6.00
2023-08-14T21:48:40.727Z,5.72
2023-08-14T21:52:07.365Z,4.82
2023-08-14T21:55:30.880Z,5.28
2023-08-14T21:58:58.307Z,6.47
2023-08-14T22:02:24.305Z,5.10
2023-08-14T22:05:53.736Z,10.57
2023-08-14T22:09:19.061Z,6.57
2023-08-14T22:12:42.615Z,5.97
2023-08-14T22:16:05.783Z,5.55
2023-08-14T22:19:32.971Z,6.88
2023-08-14T22:22:59.885Z,7.65
2023-08-14T22:26:23.074Z,6.78
2023-08-14T22:29:48.188Z,6.10
2023-08-14T22:33:17.283Z,8.05
2023-08-14T22:36:44.804Z,9.90
2023-08-14T22:40:08.412Z,9.23
2023-08-14T22:43:35.625Z,10.65
2023-08-14T22:47:07.343Z,10.13
2023-08-14T22:50:30.698Z,7.18
2023-08-14T22:54:01.756Z,6.78
2023-08-14T22:57:24.489Z,6.03
2023-08-14T23:00:49.730Z,5.15
2023-08-14T23:04:12.802Z,7.53
2023-08-14T23:07:44.405Z,5.80
2023-08-14T23:11:11.633Z,5.18
2023-08-14T23:14:38.575Z,4.25
2023-08-14T23:18:06.192Z,5.22
2023-08-14T23:21:31.783Z,7.18
2023-08-14T23:25:09.269Z,5.65
2023-08-14T23:28:32.139Z,4.75
2023-08-14T23:31:59.366Z,7.20
2023-08-14T23:35:22.610Z,7.18
2023-08-14T23:38:52.093Z,5.35
2023-08-14T23:42:15.131Z,5.78
2023-08-14T23:45:38.416Z,5.70
2023-08-14T23:49:04.083Z,5.90
2023-08-14T23:52:33.568Z,4.53
2023-08-14T23:56:14.285Z,4.97
2023-08-14T23:59:37.530Z,4.85
